Terminal Aerodrome Forecast
Issued by NWS Pueblo, CO

Home | Current Version | Previous Version | Text Only | Print | Product List | Glossary On
Versions: 1 2 3 4 5 6 7 8 9 10 11 12 13 14 15 16 17 18 19 20 21 22 23 24 25 26 27 28 29 30 31 32 33 34 35 36 37 38 39 40 41 42 43
000
FTUS45 KPUB 070520
TAFALS
TAF
KALS 070520Z 0706/0806 19010KT P6SM SCT060 BKN120
     FM071000 16006KT P6SM FEW120 SCT200
     FM071900 20012G22KT P6SM SCT090 SCT200
     FM080200 17008KT P6SM SCT100 BKN140=

USA.gov is the U.S. government's official web portal to all federal, state and local government web resources and services.